createdAt,value
2023-04-14T00:00:00.291Z,5.0
2023-04-14T00:05:00.432Z,4.8
2023-04-14T00:10:00.298Z,4.2
2023-04-14T00:15:00.296Z,4.2
2023-04-14T00:20:00.293Z,4.4
2023-04-14T00:25:00.286Z,4.9
2023-04-14T00:30:00.291Z,4.1
2023-04-14T00:35:00.267Z,4.0
2023-04-14T00:40:00.337Z,3.8
2023-04-14T00:45:00.261Z,3.5
2023-04-14T00:50:00.296Z,4.4
2023-04-14T00:55:00.300Z,4.6
2023-04-14T01:00:00.289Z,4.3
2023-04-14T01:05:00.462Z,4.0
2023-04-14T01:10:00.334Z,4.7
2023-04-14T01:15:00.343Z,5.6
2023-04-14T01:20:00.305Z,4.8
2023-04-14T01:25:00.267Z,5.4
2023-04-14T01:30:00.288Z,5.4
2023-04-14T01:35:00.308Z,5.2
2023-04-14T01:40:00.296Z,4.9
2023-04-14T01:45:00.253Z,5.3
2023-04-14T01:50:00.325Z,6.5
2023-04-14T01:55:00.301Z,5.7
2023-04-14T02:00:00.288Z,5.6
2023-04-14T02:05:00.257Z,5.2
2023-04-14T02:10:00.459Z,5.6
2023-04-14T02:15:00.252Z,5.0
2023-04-14T02:20:00.283Z,5.4
2023-04-14T02:25:00.278Z,4.9
2023-04-14T02:30:00.300Z,4.2
2023-04-14T02:35:00.248Z,4.2
2023-04-14T02:40:00.280Z,4.8
2023-04-14T02:45:00.280Z,5.5
2023-04-14T02:50:00.286Z,5.1
2023-04-14T02:55:00.260Z,5.3
2023-04-14T03:00:00.301Z,5.3
2023-04-14T03:05:00.247Z,4.4
2023-04-14T03:10:00.285Z,5.2
2023-04-14T03:15:00.284Z,5.5
2023-04-14T03:20:00.342Z,6.4
2023-04-14T03:25:00.242Z,6.1
2023-04-14T03:30:00.360Z,6.9
2023-04-14T03:35:00.247Z,6.0
2023-04-14T03:40:00.288Z,6.2
2023-04-14T03:45:00.299Z,5.4
2023-04-14T03:50:00.300Z,5.7
2023-04-14T03:55:00.250Z,5.5
2023-04-14T04:00:00.289Z,5.7
2023-04-14T04:05:00.416Z,5.2
2023-04-14T04:10:00.289Z,5.9
2023-04-14T04:15:00.243Z,5.8
2023-04-14T04:20:00.291Z,5.5
2023-04-14T04:25:00.314Z,6.3
2023-04-14T04:30:00.296Z,6.0
2023-04-14T04:35:00.256Z,5.7
2023-04-14T04:40:00.298Z,6.7
2023-04-14T04:45:00.294Z,5.8
2023-04-14T04:50:00.293Z,5.2
2023-04-14T04:55:00.249Z,5.6
2023-04-14T05:00:02.377Z,5.6
2023-04-14T05:05:00.240Z,5.4
2023-04-14T05:10:00.300Z,6.1
2023-04-14T05:15:00.288Z,5.2
2023-04-14T05:20:00.291Z,5.9
2023-04-14T05:25:00.247Z,6.5
2023-04-14T05:30:00.298Z,6.3
2023-04-14T05:35:00.301Z,5.5
2023-04-14T05:40:00.294Z,8.3
2023-04-14T05:45:00.246Z,7.1
2023-04-14T05:50:00.296Z,5.9
2023-04-14T05:55:00.313Z,5.8
2023-04-14T06:00:00.287Z,6.9
2023-04-14T06:05:00.510Z,5.2
2023-04-14T06:10:00.368Z,5.5
2023-04-14T06:15:00.280Z,4.6
2023-04-14T06:20:00.306Z,4.1
2023-04-14T06:25:00.261Z,4.6
2023-04-14T06:30:00.301Z,3.8
2023-04-14T06:35:00.244Z,2.8
2023-04-14T06:40:00.293Z,2.8
2023-04-14T06:45:00.274Z,2.8
2023-04-14T06:50:00.303Z,2.8
2023-04-14T06:55:00.247Z,2.4
2023-04-14T07:00:00.320Z,3.0
2023-04-14T07:05:00.322Z,4.1
2023-04-14T07:10:00.344Z,3.0
2023-04-14T07:15:00.258Z,2.7
2023-04-14T07:20:00.288Z,3.1
2023-04-14T07:25:00.267Z,2.4
2023-04-14T07:30:00.285Z,2.3
2023-04-14T07:35:00.237Z,2.7
2023-04-14T07:40:00.291Z,2.5
2023-04-14T07:45:00.250Z,2.7
2023-04-14T07:50:00.317Z,3.1
2023-04-14T07:55:00.288Z,2.3
2023-04-14T08:00:00.296Z,3.9
2023-04-14T08:05:00.315Z,4.2
2023-04-14T08:10:00.310Z,3.2
2023-04-14T08:15:00.305Z,2.9
2023-04-14T08:20:00.276Z,2.7
2023-04-14T08:25:00.241Z,2.2
2023-04-14T08:30:00.283Z,1.9
2023-04-14T08:35:36.260Z,3.2
2023-04-14T08:40:00.276Z,3.2
2023-04-14T08:45:00.288Z,2.7
2023-04-14T08:50:00.286Z,1.8
2023-04-14T08:55:00.254Z,1.8
2023-04-14T09:00:00.317Z,1.5
2023-04-14T09:05:00.285Z,0.7
2023-04-14T09:10:00.309Z,0.8
2023-04-14T09:15:00.258Z,0.8
2023-04-14T09:20:35.498Z,1.5
2023-04-14T09:25:00.255Z,0.9
2023-04-14T09:30:00.294Z,1.3
2023-04-14T09:35:00.276Z,0.8
2023-04-14T09:40:00.288Z,1.7
2023-04-14T09:45:00.242Z,1.1
2023-04-14T09:50:00.303Z,1.2
2023-04-14T09:55:00.301Z,0.6
2023-04-14T10:00:00.285Z,1.6
2023-04-14T10:05:00.283Z,1.3
2023-04-14T10:10:00.289Z,1.4
2023-04-14T10:15:00.274Z,1.2
2023-04-14T10:20:00.297Z,1.0
2023-04-14T10:25:00.258Z,0.7
2023-04-14T10:30:00.307Z,0.9
2023-04-14T10:35:00.299Z,0.8
2023-04-14T10:40:00.266Z,0.9
2023-04-14T10:45:00.281Z,0.6
2023-04-14T10:50:00.289Z,0.9
2023-04-14T10:55:00.244Z,1.2
2023-04-14T11:00:00.328Z,1.6
2023-04-14T11:05:00.292Z,1.0
2023-04-14T11:10:00.284Z,1.3
2023-04-14T11:15:00.247Z,1.0
2023-04-14T11:20:00.306Z,1.5
2023-04-14T11:25:00.257Z,1.2
2023-04-14T11:30:00.299Z,1.5
2023-04-14T11:35:00.294Z,0.7
2023-04-14T11:40:00.371Z,0.6
2023-04-14T11:45:00.245Z,0.6
2023-04-14T11:50:00.301Z,0.7
2023-04-14T11:55:00.280Z,1.0
2023-04-14T12:00:00.294Z,1.1
2023-04-14T12:05:00.547Z,0.9
2023-04-14T12:10:00.362Z,0.7
2023-04-14T12:15:00.288Z,1.2
2023-04-14T12:20:00.287Z,1.7
2023-04-14T12:25:00.251Z,1.8
2023-04-14T12:30:00.311Z,2.5
2023-04-14T12:35:00.256Z,1.6
2023-04-14T12:40:00.319Z,2.1
2023-04-14T12:45:00.425Z,2.3
2023-04-14T12:50:00.315Z,2.2
2023-04-14T12:55:00.245Z,2.1
2023-04-14T13:00:00.308Z,1.3
2023-04-14T13:05:00.256Z,1.9
2023-04-14T13:10:00.287Z,1.8
2023-04-14T13:15:00.238Z,1.7
2023-04-14T13:20:00.305Z,2.9
2023-04-14T13:25:00.245Z,2.2
2023-04-14T13:30:00.293Z,2.1
2023-04-14T13:35:00.285Z,1.5
2023-04-14T13:40:00.281Z,1.9
2023-04-14T13:45:00.271Z,2.0
2023-04-14T13:50:00.301Z,1.7
2023-04-14T13:55:00.284Z,2.4
2023-04-14T14:00:00.282Z,1.8
2023-04-14T14:05:00.259Z,2.2
2023-04-14T14:10:00.319Z,2.3
2023-04-14T14:15:00.241Z,1.9
2023-04-14T14:20:00.365Z,2.1
2023-04-14T14:25:15.221Z,12.2
2023-04-14T14:30:00.309Z,7.8
2023-04-14T14:35:00.238Z,6.3
2023-04-14T14:40:00.326Z,9.4
2023-04-14T14:45:00.901Z,3.2
2023-04-14T14:50:02.070Z,3.6
2023-04-14T14:55:00.248Z,3.0
2023-04-14T15:00:00.231Z,2.2
2023-04-14T15:05:00.200Z,1.7
2023-04-14T15:10:00.284Z,2.0
2023-04-14T15:15:00.230Z,2.3
2023-04-14T15:20:00.279Z,2.2
2023-04-14T15:25:00.313Z,2.5
2023-04-14T15:30:00.328Z,2.3
2023-04-14T15:35:00.292Z,2.8
2023-04-14T15:40:00.361Z,2.3
2023-04-14T15:45:00.341Z,2.5
2023-04-14T15:50:12.997Z,2.6
2023-04-14T15:55:00.305Z,2.6
2023-04-14T16:00:00.302Z,3.4
2023-04-14T16:05:00.414Z,2.6
2023-04-14T16:10:00.257Z,2.3
2023-04-14T16:15:00.341Z,2.4
2023-04-14T16:20:00.314Z,2.9
2023-04-14T16:25:00.307Z,2.5
2023-04-14T16:30:00.274Z,2.1
2023-04-14T16:35:00.323Z,1.8
2023-04-14T16:40:00.338Z,1.7
2023-04-14T16:45:00.341Z,1.6
2023-04-14T16:50:00.384Z,2.0
2023-04-14T16:55:01.010Z,2.0
2023-04-14T17:00:00.325Z,1.6
2023-04-14T17:05:00.353Z,1.6
2023-04-14T17:10:00.272Z,1.7
2023-04-14T17:15:00.344Z,2.0
2023-04-14T17:20:00.239Z,1.5
2023-04-14T17:25:00.285Z,1.6
2023-04-14T17:30:00.281Z,2.0
2023-04-14T17:35:00.274Z,2.0
2023-04-14T17:40:00.233Z,2.2
2023-04-14T17:45:00.318Z,2.0
2023-04-14T17:50:00.317Z,2.5
2023-04-14T17:55:00.298Z,1.8
2023-04-14T18:00:00.233Z,2.5
2023-04-14T18:05:00.320Z,3.4
2023-04-14T18:10:00.242Z,3.3
2023-04-14T18:15:00.300Z,3.8
2023-04-14T18:20:00.264Z,3.1
2023-04-14T18:25:00.298Z,4.5
2023-04-14T18:30:00.265Z,7.0
2023-04-14T18:35:00.310Z,6.5
2023-04-14T18:40:00.271Z,6.9
2023-04-14T18:45:00.277Z,7.9
2023-04-14T18:50:00.292Z,6.2
2023-04-14T18:55:00.292Z,5.9
2023-04-14T19:00:00.285Z,5.0
2023-04-14T19:05:00.342Z,6.2
2023-04-14T19:10:00.278Z,5.0
2023-04-14T19:15:00.318Z,5.4
2023-04-14T19:20:00.283Z,5.1
2023-04-14T19:25:00.245Z,6.5
2023-04-14T19:30:00.316Z,5.6
2023-04-14T19:35:00.281Z,5.8
2023-04-14T19:40:00.284Z,7.0
2023-04-14T19:45:00.267Z,7.6
2023-04-14T19:50:00.298Z,6.6
2023-04-14T19:55:00.240Z,5.1
2023-04-14T20:00:00.302Z,4.4
2023-04-14T20:05:00.292Z,4.5
2023-04-14T20:10:00.318Z,4.5
2023-04-14T20:15:00.240Z,4.5
2023-04-14T20:20:01.564Z,4.5
2023-04-14T20:25:00.263Z,4.0
2023-04-14T20:30:00.302Z,4.7
2023-04-14T20:35:00.322Z,4.1
2023-04-14T20:40:00.295Z,4.9
2023-04-14T20:45:00.256Z,4.9
2023-04-14T20:50:00.308Z,4.6
2023-04-14T20:55:00.286Z,5.0
2023-04-14T21:00:00.320Z,3.9
2023-04-14T21:05:00.245Z,4.1
2023-04-14T21:10:00.441Z,4.3
2023-04-14T21:15:45.068Z,5.4
2023-04-14T21:20:00.278Z,4.7
2023-04-14T21:25:00.235Z,5.1
2023-04-14T21:30:00.292Z,4.8
2023-04-14T21:35:00.270Z,4.5
2023-04-14T21:40:00.299Z,4.9
2023-04-14T21:45:00.302Z,5.0
2023-04-14T21:50:00.292Z,4.6
2023-04-14T21:55:00.267Z,5.2
2023-04-14T22:00:00.335Z,5.5
2023-04-14T22:05:00.247Z,5.8
2023-04-14T22:10:00.359Z,5.8
2023-04-14T22:15:00.296Z,4.9
2023-04-14T22:20:00.296Z,5.5
2023-04-14T22:25:00.407Z,5.9
2023-04-14T22:30:00.324Z,4.7
2023-04-14T22:35:00.291Z,6.6
2023-04-14T22:40:00.297Z,4.9
2023-04-14T22:45:00.265Z,5.2
2023-04-14T22:50:00.282Z,6.0
2023-04-14T22:55:00.280Z,5.3
2023-04-14T23:00:00.290Z,5.0
2023-04-14T23:05:00.259Z,4.5
2023-04-14T23:10:00.284Z,3.1
2023-04-14T23:15:00.286Z,3.7
2023-04-14T23:20:00.286Z,3.4
2023-04-14T23:25:00.242Z,3.2
2023-04-14T23:30:00.284Z,3.1
2023-04-14T23:35:00.233Z,2.8
2023-04-14T23:40:00.288Z,3.0
2023-04-14T23:45:00.277Z,2.3
2023-04-14T23:50:00.270Z,4.0
2023-04-14T23:55:00.243Z,2.6
